MT WASHINGTON (MTW)

Elevation: 920' · LOS ANGELES R basin · Operator: Los Angeles County Fire Dept

Query executed Thursday at 23:49:05   clock

Provisional data, subject to change.
Select a sensor type for a plot of data.

Earlier

Date   /   Time   RAIN     TEMP     REL HUM     BAR PRE     FUEL MS     FUEL TP     WIND SP     WIND DR     PEAK WS     PEAK WD     SOLAR R     BAT VOL    
(PDT)INCHES   DEG F   %   INCHES   %   DEG F   MPH   DEG   MPH   DEG   W/M^2   VOLTS  
10/23/2014 00:00 0.00 69 55 -- 11 65 -- -- -- -- 0.00 12.4
10/23/2014 01:00 0.00 66 57 -- 11 65 -- -- -- -- 0.00 12.4
10/23/2014 02:00 0.00 66 53 -- 11 64 -- -- -- -- 0.00 12.4
10/23/2014 03:00 0.00 66 46 -- 10 65 -- -- -- -- 0.00 12.4
10/23/2014 04:00 0.00 66 44 -- 10 65 -- -- -- -- 0.00 12.3
10/23/2014 05:00 0.00 68 36 -- 10 66 -- -- -- -- 0.00 12.3
10/23/2014 06:00 0.00 68 38 -- 10 65 -- -- -- -- 0.00 12.3
10/23/2014 07:00 0.00 70 32 -- 10 67 -- -- -- -- 35.00 12.6
10/23/2014 08:00 0.00 72 35 -- 10 69 -- -- -- -- 47.00 12.9
10/23/2014 09:00 0.00 84 22 -- 9 81 -- -- -- -- 376.00 13.4
10/23/2014 10:00 0.00 85 21 -- 8 88 -- -- -- -- 557.00 13.3
10/23/2014 11:00 0.00 86 23 -- 8 93 -- -- -- -- 646.00 13.3
10/23/2014 12:00 0.00 86 25 -- 8 95 -- -- -- -- 666.00 13.3
10/23/2014 13:00 0.00 88 21 -- 7 102 -- -- -- -- 634.00 13.4
10/23/2014 14:00 0.00 88 25 -- 7 99 -- -- -- -- 507.00 13.4
10/23/2014 15:00 0.00 87 23 -- 7 93 -- -- -- -- 287.00 13.4
10/23/2014 16:00 0.00 86 19 -- 6 82 -- -- -- -- 146.00 13.0
10/23/2014 17:00 0.00 78 33 -- 6 75 -- -- -- -- 54.00 12.6
10/23/2014 18:00 0.00 73 46 -- 7 71 -- -- -- -- 2.00 12.5
10/23/2014 19:00 0.00 75 44 -- 8 72 -- -- -- -- 0.00 12.5
10/23/2014 20:00 0.00 75 42 -- 8 72 -- -- -- -- 0.00 12.5
10/23/2014 21:00 0.00 75 30 -- 7 71 -- -- -- -- 0.00 12.5
10/23/2014 22:00 0.00 71 39 -- 7 68 -- -- -- -- 0.00 12.5
10/23/2014 23:00 -- -- -- -- -- -- -- -- -- -- -- --

Later | Latest

Warning! This data is preliminary and subject to revision.

Show MTW Map | 24 Hours MTW Data | Plot all MTW Sensors | Daily MTW Data | MTW Info